AAL3254 MMSD-KDFW
Flight info
| Callsign | AAL3254 |
|---|---|
| Flight time | N/A |
| Altitude | 35000 |
| Route | UKUXA1A UKUXA DCT CUU DCT AMUKI J42 FST DCT GEEKY BOOVE7 |
| Aircraft | B738/M-SDE2E3FGHIRWXY/LB1 |
Departure
| Time | N/A |
|---|---|
| Airport | Los Cabos International Airport (MMSD) |
Arrival
| Time | 2026-05-05 20:29 |
|---|---|
| Airport | Dallas Fort Worth International Airport (KDFW) |
| Time | Latitude | Longitude | Altitude | Speed | Heading |
|---|---|---|---|---|---|
| 2026-05-05 20:03 | 32.33947 | -98.67697 | 29209 ft | 493 kts | 88° |
| 2026-05-05 20:03 | 32.34130 | -98.63656 | 28777 ft | 490 kts | 88° |
| 2026-05-05 20:04 | 32.34310 | -98.59640 | 28359 ft | 487 kts | 88° |
| 2026-05-05 20:04 | 32.34487 | -98.55660 | 27976 ft | 483 kts | 88° |
| 2026-05-05 20:04 | 32.34662 | -98.51701 | 27572 ft | 480 kts | 88° |
| 2026-05-05 20:04 | 32.34835 | -98.47772 | 27162 ft | 477 kts | 88° |
| 2026-05-05 20:05 | 32.35005 | -98.43863 | 26739 ft | 475 kts | 88° |
| 2026-05-05 20:05 | 32.35173 | -98.39973 | 26323 ft | 472 kts | 88° |
| 2026-05-05 20:05 | 32.35343 | -98.36055 | 25897 ft | 469 kts | 88° |
| 2026-05-05 20:05 | 32.35505 | -98.32264 | 25494 ft | 467 kts | 88° |
| 2026-05-05 20:06 | 32.35666 | -98.28445 | 25080 ft | 464 kts | 88° |
| 2026-05-05 20:06 | 32.35826 | -98.24643 | 24674 ft | 461 kts | 88° |
| 2026-05-05 20:06 | 32.35981 | -98.20867 | 24292 ft | 458 kts | 88° |
| 2026-05-05 20:06 | 32.36134 | -98.17062 | 23817 ft | 457 kts | 89° |
| 2026-05-05 20:07 | 32.36281 | -98.13368 | 23432 ft | 454 kts | 89° |
| 2026-05-05 20:07 | 32.36429 | -98.09650 | 23028 ft | 451 kts | 89° |
| 2026-05-05 20:07 | 32.36576 | -98.05957 | 22614 ft | 449 kts | 89° |
| 2026-05-05 20:07 | 32.36720 | -98.02282 | 22187 ft | 446 kts | 89° |
| 2026-05-05 20:08 | 32.36865 | -97.98624 | 21787 ft | 444 kts | 89° |
| 2026-05-05 20:08 | 32.37007 | -97.94990 | 21377 ft | 441 kts | 89° |
| 2026-05-05 20:08 | 32.37147 | -97.91374 | 20972 ft | 437 kts | 89° |
| 2026-05-05 20:08 | 32.37287 | -97.87794 | 20553 ft | 435 kts | 89° |
| 2026-05-05 20:09 | 32.37428 | -97.84206 | 20349 ft | 425 kts | 89° |
| 2026-05-05 20:09 | 32.37564 | -97.80732 | 19974 ft | 423 kts | 89° |
| 2026-05-05 20:09 | 32.37696 | -97.77318 | 19614 ft | 419 kts | 89° |
| 2026-05-05 20:09 | 32.37830 | -97.73844 | 19203 ft | 416 kts | 89° |
| 2026-05-05 20:10 | 32.37961 | -97.70438 | 18822 ft | 413 kts | 89° |
| 2026-05-05 20:10 | 32.38089 | -97.67059 | 18445 ft | 410 kts | 89° |
| 2026-05-05 20:10 | 32.38516 | -97.63749 | 18034 ft | 408 kts | 70° |
| 2026-05-05 20:10 | 32.39792 | -97.60802 | 17667 ft | 400 kts | 50° |
| 2026-05-05 20:11 | 32.41654 | -97.58422 | 17312 ft | 391 kts | 39° |
| 2026-05-05 20:11 | 32.43632 | -97.56234 | 16943 ft | 388 kts | 38° |
| 2026-05-05 20:11 | 32.45593 | -97.54071 | 16620 ft | 383 kts | 39° |
| 2026-05-05 20:11 | 32.47523 | -97.51909 | 16270 ft | 380 kts | 39° |
| 2026-05-05 20:12 | 32.49425 | -97.49756 | 15952 ft | 376 kts | 40° |
| 2026-05-05 20:12 | 32.51298 | -97.47623 | 15635 ft | 371 kts | 40° |
| 2026-05-05 20:12 | 32.53145 | -97.45511 | 15333 ft | 368 kts | 40° |
| 2026-05-05 20:12 | 32.54972 | -97.43413 | 15003 ft | 364 kts | 40° |
| 2026-05-05 20:13 | 32.56784 | -97.41337 | 14704 ft | 360 kts | 40° |
| 2026-05-05 20:13 | 32.58577 | -97.39285 | 14399 ft | 356 kts | 40° |
| 2026-05-05 20:13 | 32.60352 | -97.37253 | 14103 ft | 353 kts | 40° |
| 2026-05-05 20:13 | 32.62108 | -97.35243 | 13803 ft | 349 kts | 40° |
| 2026-05-05 20:14 | 32.63851 | -97.33246 | 13517 ft | 347 kts | 40° |
| 2026-05-05 20:14 | 32.65580 | -97.31264 | 13223 ft | 345 kts | 40° |
| 2026-05-05 20:14 | 32.67290 | -97.29297 | 12976 ft | 340 kts | 40° |
| 2026-05-05 20:14 | 32.68968 | -97.27367 | 12808 ft | 332 kts | 40° |
| 2026-05-05 20:15 | 32.70616 | -97.25473 | 12664 ft | 327 kts | 40° |
| 2026-05-05 20:15 | 32.72234 | -97.23614 | 12509 ft | 320 kts | 40° |
| 2026-05-05 20:15 | 32.73809 | -97.21804 | 12373 ft | 312 kts | 40° |
| 2026-05-05 20:15 | 32.75352 | -97.20027 | 12232 ft | 305 kts | 40° |
| 2026-05-05 20:16 | 32.76863 | -97.18290 | 12099 ft | 299 kts | 38° |
| 2026-05-05 20:16 | 32.78555 | -97.17021 | 11929 ft | 280 kts | 11° |
| 2026-05-05 20:16 | 32.80417 | -97.16668 | 11718 ft | 267 kts | 353° |
| 2026-05-05 20:16 | 32.82267 | -97.16647 | 11463 ft | 266 kts | 352° |
| 2026-05-05 20:17 | 32.84117 | -97.16645 | 11195 ft | 265 kts | 353° |
| 2026-05-05 20:17 | 32.85957 | -97.16637 | 10952 ft | 263 kts | 353° |
| 2026-05-05 20:17 | 32.87778 | -97.16626 | 10720 ft | 261 kts | 353° |
| 2026-05-05 20:17 | 32.89587 | -97.16612 | 10470 ft | 259 kts | 353° |
| 2026-05-05 20:18 | 32.91393 | -97.16595 | 10200 ft | 259 kts | 353° |
| 2026-05-05 20:18 | 32.93189 | -97.16576 | 9969 ft | 258 kts | 353° |
| 2026-05-05 20:18 | 32.94972 | -97.16559 | 9743 ft | 255 kts | 353° |
| 2026-05-05 20:18 | 32.96747 | -97.16540 | 9486 ft | 254 kts | 354° |
| 2026-05-05 20:19 | 32.98513 | -97.16520 | 9241 ft | 253 kts | 354° |
| 2026-05-05 20:19 | 33.00248 | -97.16501 | 9014 ft | 253 kts | 354° |
| 2026-05-05 20:19 | 33.02009 | -97.16489 | 8783 ft | 253 kts | 354° |
| 2026-05-05 20:19 | 33.03794 | -97.16471 | 8534 ft | 253 kts | 355° |
| 2026-05-05 20:20 | 33.05532 | -97.16447 | 8304 ft | 253 kts | 355° |
| 2026-05-05 20:20 | 33.07287 | -97.16426 | 8050 ft | 252 kts | 355° |
| 2026-05-05 20:20 | 33.09014 | -97.16405 | 7982 ft | 246 kts | 355° |
| 2026-05-05 20:20 | 33.10739 | -97.16384 | 7772 ft | 250 kts | 355° |
| 2026-05-05 20:21 | 33.12488 | -97.16362 | 7556 ft | 252 kts | 355° |
| 2026-05-05 20:21 | 33.14239 | -97.16343 | 7344 ft | 250 kts | 355° |
| 2026-05-05 20:21 | 33.15966 | -97.16318 | 7132 ft | 246 kts | 355° |
| 2026-05-05 20:21 | 33.17675 | -97.16286 | 6898 ft | 241 kts | 355° |
| 2026-05-05 20:22 | 33.19367 | -97.16264 | 6684 ft | 243 kts | 355° |
| 2026-05-05 20:22 | 33.21038 | -97.15980 | 6431 ft | 255 kts | 20° |
| 2026-05-05 20:22 | 33.22432 | -97.14688 | 6211 ft | 259 kts | 52° |
| 2026-05-05 20:22 | 33.23145 | -97.12700 | 5969 ft | 259 kts | 84° |
| 2026-05-05 20:23 | 33.22966 | -97.10622 | 5718 ft | 255 kts | 114° |
| 2026-05-05 20:23 | 33.22109 | -97.08803 | 5511 ft | 250 kts | 130° |
| 2026-05-05 20:23 | 33.21075 | -97.07141 | 5296 ft | 247 kts | 131° |
| 2026-05-05 20:23 | 33.19854 | -97.05707 | 5008 ft | 240 kts | 159° |
| 2026-05-05 20:24 | 33.18307 | -97.05470 | 4840 ft | 223 kts | 192° |
| 2026-05-05 20:24 | 33.16758 | -97.05539 | 4631 ft | 225 kts | 179° |
| 2026-05-05 20:24 | 33.15219 | -97.05384 | 4449 ft | 220 kts | 182° |
| 2026-05-05 20:24 | 33.13711 | -97.05349 | 4267 ft | 213 kts | 184° |
| 2026-05-05 20:25 | 33.12224 | -97.05355 | 4114 ft | 215 kts | 184° |
| 2026-05-05 20:25 | 33.10713 | -97.05365 | 4049 ft | 218 kts | 184° |
| 2026-05-05 20:25 | 33.09161 | -97.05374 | 3967 ft | 220 kts | 184° |
| 2026-05-05 20:25 | 33.07643 | -97.05381 | 3714 ft | 215 kts | 184° |
| 2026-05-05 20:26 | 33.06223 | -97.05386 | 3448 ft | 200 kts | 185° |
| 2026-05-05 20:26 | 33.04869 | -97.05394 | 3196 ft | 189 kts | 185° |
| 2026-05-05 20:26 | 33.03578 | -97.05400 | 2945 ft | 183 kts | 185° |
| 2026-05-05 20:26 | 33.02305 | -97.05409 | 2736 ft | 183 kts | 184° |
| 2026-05-05 20:27 | 33.01031 | -97.05415 | 2477 ft | 183 kts | 184° |
| 2026-05-05 20:27 | 32.99759 | -97.05423 | 2243 ft | 183 kts | 184° |
| 2026-05-05 20:27 | 32.98471 | -97.05429 | 1980 ft | 179 kts | 184° |
| 2026-05-05 20:27 | 32.97288 | -97.05432 | 1732 ft | 166 kts | 184° |
| 2026-05-05 20:28 | 32.96191 | -97.05439 | 1533 ft | 150 kts | 184° |
| 2026-05-05 20:28 | 32.95201 | -97.05448 | 1363 ft | 142 kts | 185° |
| 2026-05-05 20:28 | 32.94210 | -97.05452 | 1164 ft | 143 kts | 184° |
| 2026-05-05 20:28 | 32.93207 | -97.05451 | 969 ft | 146 kts | 183° |
| 2026-05-05 20:29 | 32.92210 | -97.05459 | 809 ft | 142 kts | 184° |
| 2026-05-05 20:29 | 32.91217 | -97.05466 | 635 ft | 142 kts | 184° |
| 2026-05-05 20:29 | 32.90319 | -97.05472 | 619 ft | 111 kts | 180° |
| 2026-05-05 20:29 | 32.89930 | -97.05392 | 615 ft | 27 kts | 149° |
| 2026-05-05 20:30 | 32.89806 | -97.05305 | 615 ft | 14 kts | 149° |
| 2026-05-05 20:30 | 32.89762 | -97.05217 | 620 ft | 13 kts | 90° |
| 2026-05-05 20:30 | 32.89761 | -97.05100 | 615 ft | 18 kts | 90° |
| 2026-05-05 20:30 | 32.89761 | -97.04921 | 626 ft | 22 kts | 90° |
| 2026-05-05 20:31 | 32.89752 | -97.04740 | 625 ft | 22 kts | 115° |
| 2026-05-05 20:31 | 32.89663 | -97.04656 | 624 ft | 15 kts | 89° |
| 2026-05-05 20:31 | 32.89665 | -97.04568 | 622 ft | 0 kts | 90° |